createdAt,value
2022-10-13T00:03:23.989Z,87.87
2022-10-13T00:13:25.222Z,92.01
2022-10-13T00:23:26.455Z,91.36
2022-10-13T00:33:27.908Z,92.74
2022-10-13T00:43:47.650Z,94.33
2022-10-13T00:53:49.170Z,92.92
2022-10-13T01:03:50.421Z,91.85
2022-10-13T01:14:09.743Z,94.02
2022-10-13T01:24:26.689Z,90.25
2022-10-13T01:34:34.091Z,90.89
2022-10-13T01:44:38.173Z,91.38
2022-10-13T01:54:39.508Z,91.46
2022-10-13T02:04:49.820Z,90.66
2022-10-13T02:14:52.768Z,91.00
2022-10-13T02:24:53.998Z,92.83
2022-10-13T02:34:55.257Z,92.62
2022-10-13T02:44:56.505Z,93.55
2022-10-13T02:54:57.746Z,92.65
2022-10-13T03:04:59.034Z,93.69
2022-10-13T03:15:00.593Z,93.55
2022-10-13T03:25:01.818Z,92.99
2022-10-13T03:35:03.169Z,93.84
2022-10-13T03:45:05.240Z,94.13
2022-10-13T03:55:06.614Z,93.50
2022-10-13T04:05:08.000Z,91.24
2022-10-13T04:15:09.582Z,92.13
2022-10-13T04:25:10.826Z,92.84
2022-10-13T04:35:12.097Z,91.83
2022-10-13T04:45:13.352Z,91.25
2022-10-13T04:55:14.633Z,91.79
2022-10-13T05:05:15.982Z,91.70
2022-10-13T05:15:17.274Z,91.82
2022-10-13T05:25:18.523Z,92.17
2022-10-13T05:35:19.752Z,91.55
2022-10-13T05:45:21.623Z,92.96
2022-10-13T05:55:22.904Z,92.94
2022-10-13T06:05:25.975Z,94.07
2022-10-13T06:15:28.310Z,91.87
2022-10-13T06:25:29.809Z,90.94
2022-10-13T06:35:31.077Z,92.89
2022-10-13T06:45:32.309Z,91.49
2022-10-13T06:55:33.631Z,92.23
2022-10-13T07:05:34.938Z,91.49
2022-10-13T07:15:40.072Z,92.32
2022-10-13T07:25:41.351Z,92.50
2022-10-13T07:35:42.612Z,92.99
2022-10-13T07:45:43.840Z,90.34
2022-10-13T07:55:45.078Z,90.89
2022-10-13T08:05:46.345Z,89.63
2022-10-13T08:15:47.693Z,90.99
2022-10-13T08:25:49.051Z,89.58
2022-10-13T08:35:50.543Z,90.20
2022-10-13T08:45:52.983Z,90.66
2022-10-13T08:55:57.434Z,89.11
2022-10-13T09:06:17.490Z,89.39
2022-10-13T09:16:26.110Z,87.71
2022-10-13T09:26:27.388Z,87.21
2022-10-13T09:36:29.066Z,87.70
2022-10-13T09:46:35.662Z,87.58
2022-10-13T09:56:43.535Z,85.90
2022-10-13T10:06:45.371Z,86.09
2022-10-13T10:16:49.875Z,84.78
2022-10-13T10:26:55.321Z,83.79
2022-10-13T10:37:08.456Z,84.67
2022-10-13T10:47:27.982Z,82.82
2022-10-13T10:57:35.028Z,83.16
2022-10-13T11:07:39.059Z,82.96
2022-10-13T11:17:40.958Z,82.33
2022-10-13T11:27:42.881Z,80.48
2022-10-13T11:38:12.674Z,81.00
2022-10-13T11:48:16.664Z,81.38
2022-10-13T11:58:25.201Z,81.02
2022-10-13T12:08:27.791Z,82.27
2022-10-13T12:18:33.812Z,83.77
2022-10-13T12:28:50.379Z,83.53
2022-10-13T12:38:53.998Z,84.23
2022-10-13T12:49:03.912Z,85.22
2022-10-13T12:59:05.293Z,86.39
2022-10-13T13:09:15.764Z,86.51
2022-10-13T13:19:22.292Z,87.26
2022-10-13T13:29:23.599Z,86.33
2022-10-13T13:39:24.887Z,87.47
2022-10-13T13:49:26.148Z,88.82
2022-10-13T13:59:29.160Z,86.64
2022-10-13T14:09:30.543Z,89.78
2022-10-13T14:19:32.299Z,90.35
2022-10-13T14:29:33.599Z,91.31
2022-10-13T14:39:34.840Z,92.92
2022-10-13T14:49:36.087Z,94.28
2022-10-13T14:59:37.318Z,94.93
2022-10-13T15:09:52.118Z,93.03
2022-10-13T15:19:54.591Z,95.09
2022-10-13T15:29:55.839Z,94.99
2022-10-13T15:39:57.814Z,94.29
2022-10-13T15:49:59.171Z,94.84
2022-10-13T16:00:00.415Z,95.90
2022-10-13T16:10:01.961Z,96.12
2022-10-13T16:20:04.059Z,93.67
2022-10-13T16:30:05.880Z,94.25
2022-10-13T16:40:07.533Z,96.04
2022-10-13T16:50:09.836Z,94.98
2022-10-13T17:00:11.551Z,95.06
2022-10-13T17:10:12.796Z,96.01
2022-10-13T17:20:14.102Z,98.38
2022-10-13T17:30:15.471Z,98.20
2022-10-13T17:40:16.800Z,99.16
2022-10-13T17:50:18.167Z,98.61
2022-10-13T18:00:19.624Z,99.20
2022-10-13T18:10:21.121Z,98.59
2022-10-13T18:20:22.400Z,98.79
2022-10-13T18:30:23.790Z,100.00
2022-10-13T18:40:25.042Z,98.21
2022-10-13T18:50:26.312Z,95.89
2022-10-13T19:00:27.607Z,96.17
2022-10-13T19:10:29.227Z,95.71
2022-10-13T19:20:30.486Z,95.90
2022-10-13T19:30:31.777Z,94.54
2022-10-13T19:40:33.036Z,96.12
2022-10-13T19:50:34.296Z,95.84
2022-10-13T20:00:36.018Z,96.40
2022-10-13T20:10:39.068Z,95.93
2022-10-13T20:20:41.225Z,96.51
2022-10-13T20:30:42.961Z,95.03
2022-10-13T20:40:44.936Z,96.19
2022-10-13T20:50:46.188Z,95.74
2022-10-13T21:00:47.470Z,96.55
2022-10-13T21:10:49.131Z,96.08
2022-10-13T21:20:50.419Z,95.87
2022-10-13T21:30:58.987Z,96.31
2022-10-13T21:41:03.151Z,95.71
2022-10-13T21:51:14.409Z,95.83
2022-10-13T22:01:16.751Z,95.89
2022-10-13T22:11:18.371Z,96.13
2022-10-13T22:21:20.809Z,96.28
2022-10-13T22:31:22.086Z,95.44
2022-10-13T22:41:23.438Z,95.48
2022-10-13T22:51:25.747Z,96.36
2022-10-13T23:01:27.112Z,96.83
2022-10-13T23:11:28.398Z,96.47
2022-10-13T23:21:29.962Z,96.89
2022-10-13T23:31:31.628Z,97.62
2022-10-13T23:41:33.042Z,98.12
2022-10-13T23:51:34.803Z,98.30
